sensor_id;sensor_type;location;lat;lon;timestamp;pressure;altitude;pressure_sealevel;temperature;humidity
54876;BME280;40764;48.472;8.166;2022-12-18T00:03:20;99199.63;;;-8.20;82.14
54876;BME280;40764;48.472;8.166;2022-12-18T00:09:21;99208.47;;;-8.12;83.17
54876;BME280;40764;48.472;8.166;2022-12-18T00:15:21;99219.66;;;-7.82;83.47
54876;BME280;40764;48.472;8.166;2022-12-18T00:21:21;99235.28;;;-7.61;82.45
54876;BME280;40764;48.472;8.166;2022-12-18T00:27:22;99240.50;;;-7.52;83.72
54876;BME280;40764;48.472;8.166;2022-12-18T00:33:22;99233.75;;;-7.20;82.58
54876;BME280;40764;48.472;8.166;2022-12-18T00:39:22;99232.41;;;-7.86;81.11
54876;BME280;40764;48.472;8.166;2022-12-18T00:45:27;99221.44;;;-8.26;83.43
54876;BME280;40764;48.472;8.166;2022-12-18T00:51:28;99214.63;;;-8.11;84.84
54876;BME280;40764;48.472;8.166;2022-12-18T00:57:29;99209.56;;;-8.40;85.14
54876;BME280;40764;48.472;8.166;2022-12-18T01:03:29;99199.63;;;-8.20;84.82
54876;BME280;40764;48.472;8.166;2022-12-18T01:09:29;99197.94;;;-8.03;83.20
54876;BME280;40764;48.472;8.166;2022-12-18T01:15:30;99208.94;;;-8.16;83.40
54876;BME280;40764;48.472;8.166;2022-12-18T01:21:30;99203.69;;;-7.90;83.99
54876;BME280;40764;48.472;8.166;2022-12-18T01:27:32;99206.97;;;-8.14;81.89
54876;BME280;40764;48.472;8.166;2022-12-18T01:33:33;99206.63;;;-8.37;82.28
54876;BME280;40764;48.472;8.166;2022-12-18T01:39:33;99231.69;;;-7.96;82.17
54876;BME280;40764;48.472;8.166;2022-12-18T01:45:33;99246.59;;;-8.13;82.25
54876;BME280;40764;48.472;8.166;2022-12-18T01:51:34;99237.22;;;-7.89;82.18
54876;BME280;40764;48.472;8.166;2022-12-18T01:57:34;99243.66;;;-8.27;82.01
54876;BME280;40764;48.472;8.166;2022-12-18T02:03:35;99246.28;;;-8.63;81.81
54876;BME280;40764;48.472;8.166;2022-12-18T02:09:37;99238.81;;;-8.50;81.18
54876;BME280;40764;48.472;8.166;2022-12-18T02:22:18;99228.44;;;-8.70;81.24
54876;BME280;40764;48.472;8.166;2022-12-18T02:28:23;99233.19;;;-8.64;81.10
54876;BME280;40764;48.472;8.166;2022-12-18T02:34:30;99236.38;;;-8.88;79.68
54876;BME280;40764;48.472;8.166;2022-12-18T02:40:31;99248.81;;;-8.98;80.23
54876;BME280;40764;48.472;8.166;2022-12-18T02:46:35;99232.13;;;-9.09;80.17
54876;BME280;40764;48.472;8.166;2022-12-18T02:52:53;99234.31;;;-8.94;79.62
54876;BME280;40764;48.472;8.166;2022-12-18T02:59:11;99240.44;;;-8.94;78.16
54876;BME280;40764;48.472;8.166;2022-12-18T03:05:20;99251.31;;;-9.24;78.95
54876;BME280;40764;48.472;8.166;2022-12-18T03:11:28;99262.97;;;-9.17;78.89
54876;BME280;40764;48.472;8.166;2022-12-18T03:17:56;99258.84;;;-8.92;78.93
54876;BME280;40764;48.472;8.166;2022-12-18T03:24:00;99261.28;;;-9.09;78.77
54876;BME280;40764;48.472;8.166;2022-12-18T03:30:09;99262.78;;;-9.43;79.55
54876;BME280;40764;48.472;8.166;2022-12-18T03:36:12;99253.72;;;-9.03;78.04
54876;BME280;40764;48.472;8.166;2022-12-18T03:42:48;99252.63;;;-9.11;78.65
54876;BME280;40764;48.472;8.166;2022-12-18T03:49:25;99246.69;;;-9.22;78.27
54876;BME280;40764;48.472;8.166;2022-12-18T03:55:30;99251.59;;;-8.90;77.98
54876;BME280;40764;48.472;8.166;2022-12-18T04:01:38;99265.22;;;-8.85;77.04
54876;BME280;40764;48.472;8.166;2022-12-18T04:07:40;99266.91;;;-9.31;77.91
54876;BME280;40764;48.472;8.166;2022-12-18T04:13:42;99258.91;;;-9.12;78.17
54876;BME280;40764;48.472;8.166;2022-12-18T04:19:42;99260.22;;;-9.35;79.61
54876;BME280;40764;48.472;8.166;2022-12-18T04:25:42;99245.56;;;-9.20;78.64
54876;BME280;40764;48.472;8.166;2022-12-18T04:31:43;99240.91;;;-9.45;79.21
54876;BME280;40764;48.472;8.166;2022-12-18T04:37:43;99228.41;;;-9.72;80.00
54876;BME280;40764;48.472;8.166;2022-12-18T04:43:43;99234.41;;;-9.70;79.61
54876;BME280;40764;48.472;8.166;2022-12-18T04:49:44;99242.59;;;-9.54;78.69
54876;BME280;40764;48.472;8.166;2022-12-18T04:55:44;99253.75;;;-10.18;79.44
54876;BME280;40764;48.472;8.166;2022-12-18T05:01:44;99243.88;;;-10.16;79.54
54876;BME280;40764;48.472;8.166;2022-12-18T05:07:45;99251.53;;;-10.42;78.59
54876;BME280;40764;48.472;8.166;2022-12-18T05:13:46;99243.78;;;-10.24;77.01
54876;BME280;40764;48.472;8.166;2022-12-18T05:19:46;99235.56;;;-10.40;77.76
54876;BME280;40764;48.472;8.166;2022-12-18T05:25:58;99241.69;;;-10.20;77.35
54876;BME280;40764;48.472;8.166;2022-12-18T05:31:58;99239.03;;;-10.11;76.85
54876;BME280;40764;48.472;8.166;2022-12-18T05:37:58;99241.78;;;-10.60;76.31
54876;BME280;40764;48.472;8.166;2022-12-18T05:43:59;99241.31;;;-10.75;77.54
54876;BME280;40764;48.472;8.166;2022-12-18T05:50:00;99244.72;;;-10.54;77.44
54876;BME280;40764;48.472;8.166;2022-12-18T05:56:02;99254.75;;;-10.48;75.34
54876;BME280;40764;48.472;8.166;2022-12-18T06:02:04;99259.53;;;-10.82;75.75
54876;BME280;40764;48.472;8.166;2022-12-18T06:08:05;99269.78;;;-10.98;76.10
54876;BME280;40764;48.472;8.166;2022-12-18T06:14:06;99285.25;;;-10.84;76.35
54876;BME280;40764;48.472;8.166;2022-12-18T06:20:07;99294.59;;;-10.70;75.47
54876;BME280;40764;48.472;8.166;2022-12-18T06:26:10;99315.72;;;-10.80;75.54
54876;BME280;40764;48.472;8.166;2022-12-18T06:32:11;99326.16;;;-10.78;74.86
54876;BME280;40764;48.472;8.166;2022-12-18T06:38:11;99336.00;;;-11.11;75.56
54876;BME280;40764;48.472;8.166;2022-12-18T06:44:12;99340.28;;;-10.89;76.20
54876;BME280;40764;48.472;8.166;2022-12-18T06:50:12;99337.53;;;-10.78;75.60
54876;BME280;40764;48.472;8.166;2022-12-18T06:56:13;99329.06;;;-10.81;74.33
54876;BME280;40764;48.472;8.166;2022-12-18T07:02:13;99344.22;;;-10.74;74.67
54876;BME280;40764;48.472;8.166;2022-12-18T07:08:14;99335.84;;;-10.88;74.96
54876;BME280;40764;48.472;8.166;2022-12-18T07:14:14;99328.31;;;-10.93;74.83
54876;BME280;40764;48.472;8.166;2022-12-18T07:20:15;99324.03;;;-11.15;74.60
54876;BME280;40764;48.472;8.166;2022-12-18T07:26:18;99318.25;;;-10.99;74.53
54876;BME280;40764;48.472;8.166;2022-12-18T07:32:19;99318.84;;;-10.96;74.62
54876;BME280;40764;48.472;8.166;2022-12-18T07:38:19;99326.28;;;-10.40;74.10
54876;BME280;40764;48.472;8.166;2022-12-18T07:44:19;99338.16;;;-9.95;72.82
54876;BME280;40764;48.472;8.166;2022-12-18T07:50:20;99352.31;;;-10.35;72.56
54876;BME280;40764;48.472;8.166;2022-12-18T07:56:26;99364.63;;;-10.85;74.73
54876;BME280;40764;48.472;8.166;2022-12-18T08:02:30;99372.72;;;-10.77;74.60
54876;BME280;40764;48.472;8.166;2022-12-18T08:08:31;99377.00;;;-10.55;75.19
54876;BME280;40764;48.472;8.166;2022-12-18T08:14:32;99372.13;;;-10.60;74.49
54876;BME280;40764;48.472;8.166;2022-12-18T08:20:32;99370.41;;;-10.40;74.88
54876;BME280;40764;48.472;8.166;2022-12-18T08:26:33;99364.84;;;-10.18;72.96
54876;BME280;40764;48.472;8.166;2022-12-18T08:32:33;99359.97;;;-10.13;72.91
54876;BME280;40764;48.472;8.166;2022-12-18T08:38:33;99332.28;;;-10.18;73.14
54876;BME280;40764;48.472;8.166;2022-12-18T08:44:34;99322.94;;;-10.13;73.86
54876;BME280;40764;48.472;8.166;2022-12-18T08:50:37;99301.53;;;-9.90;74.25
54876;BME280;40764;48.472;8.166;2022-12-18T08:56:37;99297.84;;;-9.31;73.11
54876;BME280;40764;48.472;8.166;2022-12-18T09:02:38;99294.53;;;-8.96;72.11
54876;BME280;40764;48.472;8.166;2022-12-18T09:08:38;99294.56;;;-8.69;71.69
54876;BME280;40764;48.472;8.166;2022-12-18T09:14:39;99294.09;;;-8.55;71.72
54876;BME280;40764;48.472;8.166;2022-12-18T09:20:39;99309.22;;;-8.92;72.88
54876;BME280;40764;48.472;8.166;2022-12-18T09:26:39;99314.69;;;-8.66;73.28
54876;BME280;40764;48.472;8.166;2022-12-18T09:32:40;99318.72;;;-8.17;72.71
54876;BME280;40764;48.472;8.166;2022-12-18T09:38:40;99329.56;;;-8.11;72.85
54876;BME280;40764;48.472;8.166;2022-12-18T09:44:46;99325.44;;;-7.77;72.96
54876;BME280;40764;48.472;8.166;2022-12-18T09:50:50;99336.94;;;-7.33;71.79
54876;BME280;40764;48.472;8.166;2022-12-18T09:56:52;99348.06;;;-7.12;72.20
54876;BME280;40764;48.472;8.166;2022-12-18T10:02:53;99360.53;;;-7.30;72.54
54876;BME280;40764;48.472;8.166;2022-12-18T10:15:24;99353.72;;;-6.21;70.33
54876;BME280;40764;48.472;8.166;2022-12-18T10:21:35;99348.09;;;-6.86;73.21
54876;BME280;40764;48.472;8.166;2022-12-18T10:27:39;99324.94;;;-6.26;72.88
54876;BME280;40764;48.472;8.166;2022-12-18T10:33:40;99321.06;;;-5.73;72.43
54876;BME280;40764;48.472;8.166;2022-12-18T10:39:41;99307.25;;;-5.36;71.63
54876;BME280;40764;48.472;8.166;2022-12-18T10:45:42;99303.25;;;-5.72;72.52
54876;BME280;40764;48.472;8.166;2022-12-18T10:52:16;99292.25;;;-5.61;73.34
54876;BME280;40764;48.472;8.166;2022-12-18T10:58:35;99280.09;;;-5.39;74.15
54876;BME280;40764;48.472;8.166;2022-12-18T11:04:50;99288.56;;;-5.11;74.06
54876;BME280;40764;48.472;8.166;2022-12-18T11:10:50;99290.69;;;-4.82;74.09
54876;BME280;40764;48.472;8.166;2022-12-18T11:16:56;99279.63;;;-3.93;72.02
54876;BME280;40764;48.472;8.166;2022-12-18T11:23:17;99288.72;;;-3.79;71.25
54876;BME280;40764;48.472;8.166;2022-12-18T11:29:24;99282.97;;;-3.45;70.52
54876;BME280;40764;48.472;8.166;2022-12-18T11:41:41;99283.09;;;-3.24;72.52
54876;BME280;40764;48.472;8.166;2022-12-18T11:48:14;99268.78;;;-2.78;71.31
54876;BME280;40764;48.472;8.166;2022-12-18T11:54:21;99259.09;;;-2.50;70.80
54876;BME280;40764;48.472;8.166;2022-12-18T12:00:24;99252.63;;;-2.41;70.92
54876;BME280;40764;48.472;8.166;2022-12-18T12:06:42;99238.69;;;-2.51;72.52
54876;BME280;40764;48.472;8.166;2022-12-18T12:44:16;99248.09;;;-1.68;71.03
54876;BME280;40764;48.472;8.166;2022-12-18T12:50:20;99250.00;;;-1.83;71.83
54876;BME280;40764;48.472;8.166;2022-12-18T12:56:26;99243.84;;;-2.35;74.51
54876;BME280;40764;48.472;8.166;2022-12-18T13:02:42;99244.47;;;-2.18;73.68
54876;BME280;40764;48.472;8.166;2022-12-18T13:08:56;99235.25;;;-1.94;73.51
54876;BME280;40764;48.472;8.166;2022-12-18T13:16:02;99223.00;;;-1.61;72.23
54876;BME280;40764;48.472;8.166;2022-12-18T13:21:33;99223.09;;;-1.47;71.44
54876;BME280;40764;48.472;8.166;2022-12-18T13:33:45;99211.72;;;-1.99;74.59
54876;BME280;40764;48.472;8.166;2022-12-18T13:39:46;99198.28;;;-1.77;74.15
54876;BME280;40764;48.472;8.166;2022-12-18T13:46:41;99197.22;;;-1.62;72.86
54876;BME280;40764;48.472;8.166;2022-12-18T13:52:28;99189.81;;;-1.81;73.90
54876;BME280;40764;48.472;8.166;2022-12-18T13:58:28;99186.44;;;-1.90;74.83
54876;BME280;40764;48.472;8.166;2022-12-18T14:04:31;99190.06;;;-1.97;75.73
54876;BME280;40764;48.472;8.166;2022-12-18T14:10:32;99185.53;;;-1.97;75.27
54876;BME280;40764;48.472;8.166;2022-12-18T14:16:34;99184.31;;;-1.94;75.37
54876;BME280;40764;48.472;8.166;2022-12-18T14:22:34;99186.19;;;-1.73;74.99
54876;BME280;40764;48.472;8.166;2022-12-18T14:28:43;99200.91;;;-2.05;75.97
54876;BME280;40764;48.472;8.166;2022-12-18T14:34:54;99187.94;;;-2.23;77.01
54876;BME280;40764;48.472;8.166;2022-12-18T14:41:14;99202.41;;;-2.17;76.93
54876;BME280;40764;48.472;8.166;2022-12-18T14:47:15;99200.97;;;-2.20;76.42
54876;BME280;40764;48.472;8.166;2022-12-18T14:53:18;99195.41;;;-2.69;77.96
54876;BME280;40764;48.472;8.166;2022-12-18T14:59:21;99189.88;;;-2.68;77.79
54876;BME280;40764;48.472;8.166;2022-12-18T15:05:30;99185.06;;;-2.72;78.04
54876;BME280;40764;48.472;8.166;2022-12-18T15:17:40;99201.69;;;-2.77;78.33
54876;BME280;40764;48.472;8.166;2022-12-18T15:30:18;99206.50;;;-2.58;78.14
54876;BME280;40764;48.472;8.166;2022-12-18T15:36:20;99225.03;;;-3.00;78.47
54876;BME280;40764;48.472;8.166;2022-12-18T15:42:22;99233.19;;;-3.46;80.98
54876;BME280;40764;48.472;8.166;2022-12-18T15:48:46;99237.00;;;-3.26;80.91
54876;BME280;40764;48.472;8.166;2022-12-18T15:54:47;99237.84;;;-2.96;79.31
54876;BME280;40764;48.472;8.166;2022-12-18T16:01:08;99234.47;;;-3.42;80.81
54876;BME280;40764;48.472;8.166;2022-12-18T16:07:10;99228.91;;;-3.18;81.06
54876;BME280;40764;48.472;8.166;2022-12-18T16:13:12;99231.59;;;-3.18;79.38
54876;BME280;40764;48.472;8.166;2022-12-18T16:19:14;99230.63;;;-3.62;81.64
54876;BME280;40764;48.472;8.166;2022-12-18T16:31:17;99226.66;;;-3.66;83.01
54876;BME280;40764;48.472;8.166;2022-12-18T16:37:17;99219.69;;;-3.53;83.52
54876;BME280;40764;48.472;8.166;2022-12-18T16:43:18;99219.91;;;-3.39;82.76
54876;BME280;40764;48.472;8.166;2022-12-18T16:49:19;99215.31;;;-3.31;82.79
54876;BME280;40764;48.472;8.166;2022-12-18T16:55:19;99197.06;;;-3.27;82.82
54876;BME280;40764;48.472;8.166;2022-12-18T17:01:20;99190.47;;;-2.87;81.82
54876;BME280;40764;48.472;8.166;2022-12-18T17:07:21;99188.47;;;-3.23;82.42
54876;BME280;40764;48.472;8.166;2022-12-18T17:13:22;99179.53;;;-3.30;84.01
54876;BME280;40764;48.472;8.166;2022-12-18T17:19:23;99185.47;;;-3.05;83.03
54876;BME280;40764;48.472;8.166;2022-12-18T17:25:25;99180.84;;;-3.11;84.17
54876;BME280;40764;48.472;8.166;2022-12-18T17:31:27;99182.31;;;-3.23;83.98
54876;BME280;40764;48.472;8.166;2022-12-18T17:37:28;99175.13;;;-3.23;84.38
54876;BME280;40764;48.472;8.166;2022-12-18T17:43:28;99179.09;;;-3.04;84.15
54876;BME280;40764;48.472;8.166;2022-12-18T17:49:29;99176.03;;;-3.30;85.58
54876;BME280;40764;48.472;8.166;2022-12-18T17:55:30;99175.41;;;-3.03;84.82
54876;BME280;40764;48.472;8.166;2022-12-18T18:01:30;99176.06;;;-3.01;84.53
54876;BME280;40764;48.472;8.166;2022-12-18T18:07:30;99169.97;;;-3.09;85.19
54876;BME280;40764;48.472;8.166;2022-12-18T18:13:31;99167.09;;;-2.93;84.63
54876;BME280;40764;48.472;8.166;2022-12-18T18:19:50;99180.94;;;-2.90;85.00
54876;BME280;40764;48.472;8.166;2022-12-18T18:25:50;99175.75;;;-2.91;84.29
54876;BME280;40764;48.472;8.166;2022-12-18T18:31:50;99161.84;;;-2.87;85.10
54876;BME280;40764;48.472;8.166;2022-12-18T18:37:51;99171.91;;;-3.03;85.51
54876;BME280;40764;48.472;8.166;2022-12-18T18:43:56;99166.91;;;-2.92;85.23
54876;BME280;40764;48.472;8.166;2022-12-18T18:49:56;99169.88;;;-2.87;85.25
54876;BME280;40764;48.472;8.166;2022-12-18T18:55:58;99158.81;;;-2.84;85.47
54876;BME280;40764;48.472;8.166;2022-12-18T19:01:59;99145.78;;;-2.87;85.07
54876;BME280;40764;48.472;8.166;2022-12-18T19:08:00;99142.47;;;-2.89;85.80
54876;BME280;40764;48.472;8.166;2022-12-18T19:14:04;99117.91;;;-2.77;86.02
54876;BME280;40764;48.472;8.166;2022-12-18T19:20:06;99119.59;;;-2.55;85.00
54876;BME280;40764;48.472;8.166;2022-12-18T19:26:07;99107.56;;;-2.44;84.07
54876;BME280;40764;48.472;8.166;2022-12-18T19:32:11;99099.41;;;-2.58;84.72
54876;BME280;40764;48.472;8.166;2022-12-18T19:38:12;99094.91;;;-2.72;85.54
54876;BME280;40764;48.472;8.166;2022-12-18T19:44:23;99091.38;;;-2.58;86.29
54876;BME280;40764;48.472;8.166;2022-12-18T19:50:24;99094.19;;;-2.44;85.76
54876;BME280;40764;48.472;8.166;2022-12-18T19:56:27;99104.13;;;-2.38;85.18
54876;BME280;40764;48.472;8.166;2022-12-18T20:02:30;99094.69;;;-2.13;84.13
54876;BME280;40764;48.472;8.166;2022-12-18T20:08:36;99103.16;;;-2.52;85.83
54876;BME280;40764;48.472;8.166;2022-12-18T20:14:36;99093.66;;;-2.55;86.14
54876;BME280;40764;48.472;8.166;2022-12-18T20:20:36;99114.22;;;-2.19;85.51
54876;BME280;40764;48.472;8.166;2022-12-18T20:26:37;99122.34;;;-1.84;83.86
54876;BME280;40764;48.472;8.166;2022-12-18T20:32:38;99112.31;;;-2.25;84.47
54876;BME280;40764;48.472;8.166;2022-12-18T20:38:38;99119.88;;;-2.50;85.96
54876;BME280;40764;48.472;8.166;2022-12-18T20:44:39;99122.16;;;-2.47;86.71
54876;BME280;40764;48.472;8.166;2022-12-18T20:50:39;99123.25;;;-2.41;85.88
54876;BME280;40764;48.472;8.166;2022-12-18T20:56:42;99123.94;;;-2.54;86.21
54876;BME280;40764;48.472;8.166;2022-12-18T21:02:42;99089.75;;;-2.73;87.14
54876;BME280;40764;48.472;8.166;2022-12-18T21:08:47;99087.47;;;-2.34;87.10
54876;BME280;40764;48.472;8.166;2022-12-18T21:14:48;99096.09;;;-2.17;87.18
54876;BME280;40764;48.472;8.166;2022-12-18T21:20:48;99090.44;;;-2.29;86.66
54876;BME280;40764;48.472;8.166;2022-12-18T21:26:56;99097.56;;;-2.14;86.91
54876;BME280;40764;48.472;8.166;2022-12-18T21:32:56;99104.31;;;-1.97;87.15
54876;BME280;40764;48.472;8.166;2022-12-18T21:38:57;99089.50;;;-1.93;86.64
54876;BME280;40764;48.472;8.166;2022-12-18T21:44:58;99084.94;;;-1.99;86.62
54876;BME280;40764;48.472;8.166;2022-12-18T21:50:58;99095.88;;;-1.94;87.11
54876;BME280;40764;48.472;8.166;2022-12-18T21:57:01;99099.00;;;-1.91;87.89
54876;BME280;40764;48.472;8.166;2022-12-18T22:03:01;99109.28;;;-1.73;85.77
54876;BME280;40764;48.472;8.166;2022-12-18T22:09:02;99102.75;;;-1.85;86.70
54876;BME280;40764;48.472;8.166;2022-12-18T22:15:03;99117.34;;;-1.94;88.68
54876;BME280;40764;48.472;8.166;2022-12-18T22:21:04;99103.50;;;-1.98;87.71
54876;BME280;40764;48.472;8.166;2022-12-18T22:27:05;99121.63;;;-2.00;88.98
54876;BME280;40764;48.472;8.166;2022-12-18T22:33:05;99134.03;;;-1.92;88.04
54876;BME280;40764;48.472;8.166;2022-12-18T22:39:08;99126.81;;;-1.70;88.29
54876;BME280;40764;48.472;8.166;2022-12-18T22:45:10;99133.06;;;-1.63;88.69
54876;BME280;40764;48.472;8.166;2022-12-18T22:58:13;99131.69;;;-1.52;88.79
54876;BME280;40764;48.472;8.166;2022-12-18T23:04:14;99123.13;;;-1.41;87.90
54876;BME280;40764;48.472;8.166;2022-12-18T23:10:15;99117.34;;;-1.66;88.52
54876;BME280;40764;48.472;8.166;2022-12-18T23:16:17;99122.81;;;-1.53;89.16
54876;BME280;40764;48.472;8.166;2022-12-18T23:22:20;99111.09;;;-1.45;88.39
54876;BME280;40764;48.472;8.166;2022-12-18T23:28:24;99108.38;;;-1.52;88.21
54876;BME280;40764;48.472;8.166;2022-12-18T23:34:24;99103.03;;;-1.45;89.43
54876;BME280;40764;48.472;8.166;2022-12-18T23:40:25;99092.25;;;-1.24;89.17
54876;BME280;40764;48.472;8.166;2022-12-18T23:46:28;99081.88;;;-1.34;89.09
54876;BME280;40764;48.472;8.166;2022-12-18T23:52:29;99085.84;;;-1.23;89.79
54876;BME280;40764;48.472;8.166;2022-12-18T23:58:30;99078.59;;;-1.29;90.03
